createdAt,value
2019-06-10T00:00:13.737Z,98150.88
2019-06-10T00:04:18.829Z,98158.91
2019-06-10T00:08:24.589Z,98160.42
2019-06-10T00:12:31.488Z,98149.59
2019-06-10T00:16:37.336Z,98149.42
2019-06-10T00:20:43.205Z,98160.60
2019-06-10T00:24:48.982Z,98176.33
2019-06-10T00:28:54.673Z,98194.09
2019-06-10T00:33:02.759Z,98180.58
2019-06-10T00:37:12.013Z,98169.48
2019-06-10T00:41:15.283Z,98191.86
2019-06-10T00:45:21.593Z,98178.56
2019-06-10T00:49:28.427Z,98165.19
2019-06-10T00:53:34.201Z,98140.48
2019-06-10T00:57:41.831Z,98122.20
2019-06-10T01:01:47.673Z,98142.16
2019-06-10T01:05:53.347Z,98165.20
2019-06-10T01:10:00.973Z,98161.64
2019-06-10T01:14:07.400Z,98152.98
2019-06-10T01:18:33.666Z,98142.98
2019-06-10T01:22:21.328Z,98137.58
2019-06-10T01:26:27.119Z,98125.66
2019-06-10T01:30:32.884Z,98112.22
2019-06-10T01:34:38.609Z,98101.72
2019-06-10T01:38:44.522Z,98110.59
2019-06-10T01:42:51.181Z,98086.79
2019-06-10T01:46:56.932Z,98097.98
2019-06-10T01:51:02.655Z,98098.39
2019-06-10T01:55:11.866Z,98077.20
2019-06-10T01:59:16.956Z,98087.78
2019-06-10T02:03:24.054Z,98099.00
2019-06-10T02:07:31.958Z,98118.63
2019-06-10T02:11:37.934Z,98113.83
2019-06-10T02:15:43.641Z,98122.84
2019-06-10T02:19:50.889Z,98131.99
2019-06-10T02:23:56.783Z,98105.78
2019-06-10T02:28:02.516Z,98110.19
2019-06-10T02:32:08.211Z,98109.35
2019-06-10T02:36:17.435Z,98097.80
2019-06-10T02:40:29.284Z,98097.69
2019-06-10T02:44:33.351Z,98087.13
2019-06-10T02:48:36.605Z,98079.48
2019-06-10T02:52:44.346Z,98086.53
2019-06-10T02:56:53.433Z,98125.75
2019-06-10T03:00:57.213Z,98121.77
2019-06-10T03:05:04.509Z,98112.17
2019-06-10T03:09:10.379Z,98099.77
2019-06-10T03:13:16.104Z,98114.93
2019-06-10T03:17:25.856Z,98131.08
2019-06-10T03:21:32.299Z,98127.25
2019-06-10T03:25:38.316Z,98123.95
2019-06-10T03:29:44.016Z,98106.66
2019-06-10T03:33:53.892Z,98069.47
2019-06-10T03:37:57.358Z,98052.47
2019-06-10T03:42:03.089Z,98046.67
2019-06-10T03:46:08.786Z,98068.97
2019-06-10T03:50:15.049Z,98070.53
2019-06-10T03:54:24.451Z,98063.67
2019-06-10T03:58:29.265Z,98055.45
2019-06-10T04:02:35.198Z,98053.59
2019-06-10T04:06:44.092Z,98040.17
2019-06-10T04:10:48.345Z,98027.37
2019-06-10T04:14:54.211Z,98040.00
2019-06-10T04:19:02.326Z,98020.20
2019-06-10T04:23:07.419Z,98030.45
2019-06-10T04:27:13.240Z,98014.31
2019-06-10T04:31:18.944Z,98028.73
2019-06-10T04:35:26.230Z,98023.94
2019-06-10T04:39:33.649Z,98013.52
2019-06-10T04:43:39.617Z,98006.00
2019-06-10T04:47:46.391Z,97993.64
2019-06-10T04:51:52.507Z,98019.55
2019-06-10T04:55:58.200Z,98011.33
2019-06-10T05:00:11.200Z,98011.64
2019-06-10T05:04:12.540Z,98011.83
2019-06-10T05:08:19.011Z,98017.33
2019-06-10T05:12:25.326Z,98021.44
2019-06-10T05:16:35.539Z,98015.98
2019-06-10T05:20:52.075Z,98031.58
2019-06-10T05:24:47.802Z,98028.63
2019-06-10T05:28:53.866Z,98029.41
2019-06-10T05:32:59.607Z,98044.20
2019-06-10T05:37:05.395Z,98056.34
2019-06-10T05:41:13.354Z,98065.84
2019-06-10T05:45:18.718Z,98075.63
2019-06-10T05:49:25.968Z,98062.05
2019-06-10T05:53:34.968Z,98066.89
2019-06-10T05:57:39.254Z,98066.91
2019-06-10T06:01:45.064Z,98052.85
2019-06-10T06:05:52.498Z,98053.54
2019-06-10T06:09:58.518Z,98060.00
2019-06-10T06:14:04.483Z,98070.88
2019-06-10T06:18:13.428Z,98083.11
2019-06-10T06:22:17.931Z,98078.77
2019-06-10T06:26:23.998Z,98091.88
2019-06-10T06:30:30.187Z,98087.60
2019-06-10T06:34:38.582Z,98095.39
2019-06-10T06:38:43.958Z,98104.59
2019-06-10T06:42:52.412Z,98108.77
2019-06-10T06:46:57.276Z,98113.88
2019-06-10T06:51:08.165Z,98108.43
2019-06-10T06:55:12.817Z,98120.88
2019-06-10T06:59:18.732Z,98141.27
2019-06-10T07:03:24.460Z,98126.27
2019-06-10T07:07:33.097Z,98128.13
2019-06-10T07:11:45.047Z,98123.25
2019-06-10T07:15:49.849Z,98120.52
2019-06-10T07:19:57.590Z,98109.55
2019-06-10T07:24:03.349Z,98109.93
2019-06-10T07:28:09.066Z,98108.22
2019-06-10T07:32:14.909Z,98103.09
2019-06-10T07:36:23.329Z,98100.67
2019-06-10T07:40:28.268Z,98105.98
2019-06-10T07:44:34.878Z,98116.97
2019-06-10T07:48:46.197Z,98129.41
2019-06-10T07:52:48.919Z,98128.73
2019-06-10T07:56:54.758Z,98123.30
2019-06-10T08:01:02.661Z,98116.50
2019-06-10T08:05:08.425Z,98120.72
2019-06-10T08:09:14.220Z,98118.52
2019-06-10T08:13:19.934Z,98107.53
2019-06-10T08:17:25.722Z,98101.28
2019-06-10T08:21:32.295Z,98096.98
2019-06-10T08:25:38.497Z,98085.75
2019-06-10T08:29:48.063Z,98064.61
2019-06-10T08:33:53.454Z,98042.83
2019-06-10T08:37:59.429Z,98052.56
2019-06-10T08:42:05.579Z,98057.08
2019-06-10T08:46:13.135Z,98062.20
2019-06-10T08:50:22.266Z,98057.42
2019-06-10T08:54:26.997Z,98050.86
2019-06-10T08:58:33.262Z,98047.23
2019-06-10T09:02:40.881Z,98052.35
2019-06-10T09:06:49.557Z,98029.21
2019-06-10T09:10:55.391Z,98017.17
2019-06-10T09:15:03.735Z,98016.27
2019-06-10T09:19:09.981Z,98008.83
2019-06-10T09:23:22.091Z,97969.92
2019-06-10T09:27:26.879Z,97940.83
2019-06-10T09:31:33.156Z,97921.99
2019-06-10T09:35:39.915Z,97891.47
2019-06-10T09:39:52.299Z,97880.63
2019-06-10T09:43:56.900Z,97875.06
2019-06-10T09:48:03.992Z,97885.43
2019-06-10T09:52:09.947Z,97887.22
2019-06-10T09:56:15.832Z,97890.41
2019-06-10T10:00:50.465Z,97876.48
2019-06-10T10:04:58.354Z,97884.88
2019-06-10T10:09:04.097Z,97886.69
2019-06-10T10:13:13.075Z,97881.50
2019-06-10T10:17:19.175Z,97905.17
2019-06-10T10:21:24.871Z,97916.52
2019-06-10T10:25:32.807Z,97935.60
2019-06-10T10:29:38.418Z,97933.84
2019-06-10T10:33:44.358Z,97916.56
2019-06-10T10:37:53.447Z,97926.30
2019-06-10T10:41:57.675Z,97920.86
2019-06-10T10:46:05.448Z,97906.88
2019-06-10T10:50:13.919Z,97888.41
2019-06-10T10:54:29.827Z,97872.55
2019-06-10T10:58:27.315Z,97860.83
2019-06-10T11:02:33.144Z,97865.86
2019-06-10T11:06:38.954Z,97866.52
2019-06-10T11:10:49.170Z,97853.55
2019-06-10T11:15:00.472Z,97842.30
2019-06-10T11:19:02.803Z,97829.92
2019-06-10T11:23:08.665Z,97813.48
2019-06-10T11:27:14.343Z,97827.61
2019-06-10T11:31:22.583Z,97811.91
2019-06-10T11:35:27.691Z,97825.28
2019-06-10T11:39:36.603Z,97809.50
2019-06-10T11:43:42.939Z,97794.77
2019-06-10T11:47:49.367Z,97797.16
2019-06-10T11:51:57.640Z,97790.73
2019-06-10T11:56:03.517Z,97814.37
2019-06-10T12:00:14.802Z,97826.22
2019-06-10T12:04:20.391Z,97846.52
2019-06-10T12:08:26.472Z,97866.46
2019-06-10T12:12:33.730Z,97854.84
2019-06-10T12:20:47.639Z,97844.37
2019-06-10T12:25:18.728Z,97856.45
2019-06-10T12:29:05.290Z,97831.28
2019-06-10T12:33:08.401Z,97814.42
2019-06-10T12:37:15.917Z,97815.14
2019-06-10T12:41:23.228Z,97812.17
2019-06-10T12:45:32.517Z,97817.18
2019-06-10T12:49:37.739Z,97820.74
2019-06-10T12:53:43.638Z,97810.46
2019-06-10T12:57:49.336Z,97820.34
2019-06-10T13:01:55.837Z,97815.80
2019-06-10T13:06:07.193Z,97814.80
2019-06-10T13:10:15.289Z,97812.31
2019-06-10T13:14:22.056Z,97811.84
2019-06-10T13:18:27.956Z,97813.87
2019-06-10T13:22:33.734Z,97801.83
2019-06-10T13:26:42.996Z,97787.24
2019-06-10T13:30:47.853Z,97772.66
2019-06-10T13:34:56.429Z,97750.96
2019-06-10T13:39:05.905Z,97790.07
2019-06-10T13:43:09.650Z,97817.83
2019-06-10T13:47:15.391Z,97839.77
2019-06-10T13:51:21.155Z,97829.67
2019-06-10T13:55:27.168Z,97832.22
2019-06-10T13:59:32.899Z,97851.66
2019-06-10T14:03:38.653Z,97845.84
2019-06-10T14:07:44.469Z,97818.11
2019-06-10T14:11:50.168Z,97824.97
2019-06-10T14:15:55.895Z,97801.70
2019-06-10T14:20:01.810Z,97783.34
2019-06-10T14:24:08.196Z,97826.31
2019-06-10T14:28:32.269Z,97831.84
2019-06-10T14:32:22.489Z,97837.48
2019-06-10T14:36:28.482Z,97826.35
2019-06-10T14:40:34.205Z,97821.09
2019-06-10T14:44:42.004Z,97804.22
2019-06-10T14:48:47.427Z,97764.20
2019-06-10T14:52:53.159Z,97749.79
2019-06-10T14:56:59.276Z,97738.91
2019-06-10T15:01:07.510Z,97716.39
2019-06-10T15:05:15.563Z,97711.31
2019-06-10T15:09:22.613Z,97720.44
2019-06-10T15:13:28.034Z,97711.87
2019-06-10T15:17:34.190Z,97702.83
2019-06-10T15:21:39.919Z,97705.88
2019-06-10T15:25:52.541Z,97704.23
2019-06-10T15:29:53.172Z,97724.64
2019-06-10T15:33:59.292Z,97744.33
2019-06-10T15:38:05.176Z,97762.92
2019-06-10T15:42:11.545Z,97769.65
2019-06-10T15:46:17.976Z,97775.64
2019-06-10T15:50:27.457Z,97771.84
2019-06-10T15:54:33.337Z,97779.91
2019-06-10T15:58:39.239Z,97787.19
2019-06-10T16:02:45.033Z,97791.48
2019-06-10T16:06:52.954Z,97798.29
2019-06-10T16:10:58.728Z,97796.98
2019-06-10T16:15:06.442Z,97797.53
2019-06-10T16:19:13.338Z,97797.80
2019-06-10T16:23:19.859Z,97790.27
2019-06-10T16:27:43.682Z,97795.08
2019-06-10T16:31:33.351Z,97776.95
2019-06-10T16:35:39.082Z,97759.56
2019-06-10T16:39:44.887Z,97760.78
2019-06-10T16:43:52.237Z,97780.72
2019-06-10T16:47:58.069Z,97793.75
2019-06-10T16:52:03.907Z,97801.90
2019-06-10T16:56:12.025Z,97799.94
2019-06-10T17:00:18.398Z,97803.75
2019-06-10T17:04:27.264Z,97807.20
2019-06-10T17:08:33.418Z,97804.95
2019-06-10T17:12:39.311Z,97815.85
2019-06-10T17:16:45.007Z,97807.89
2019-06-10T17:20:53.288Z,97797.84
2019-06-10T17:24:58.213Z,97792.94
2019-06-10T17:29:04.090Z,97788.44
2019-06-10T17:33:09.869Z,97765.27
2019-06-10T17:37:15.573Z,97775.95
2019-06-10T17:41:25.840Z,97771.30
2019-06-10T17:45:30.587Z,97769.16
2019-06-10T17:49:36.635Z,97777.77
2019-06-10T17:53:42.799Z,97778.77
2019-06-10T17:57:48.576Z,97760.69
2019-06-10T18:01:56.283Z,97738.25
2019-06-10T18:06:02.771Z,97733.34
2019-06-10T18:10:09.380Z,97752.36
2019-06-10T18:14:15.132Z,97749.42
2019-06-10T18:18:20.860Z,97750.56
2019-06-10T18:22:28.475Z,97759.02
2019-06-10T18:26:37.622Z,97762.67
2019-06-10T18:30:43.435Z,97749.95
2019-06-10T18:34:49.239Z,97751.20
2019-06-10T18:38:54.913Z,97752.01
2019-06-10T18:43:02.784Z,97755.93
2019-06-10T18:47:08.148Z,97760.59
2019-06-10T18:51:13.931Z,97748.72
2019-06-10T18:55:22.587Z,97761.88
2019-06-10T18:59:28.449Z,97748.80
2019-06-10T19:03:36.267Z,97738.11
2019-06-10T19:07:42.860Z,97742.77
2019-06-10T19:11:49.002Z,97735.64
2019-06-10T19:15:54.745Z,97721.66
2019-06-10T19:20:00.502Z,97729.67
2019-06-10T19:24:06.816Z,97715.88
2019-06-10T19:28:13.618Z,97725.39
2019-06-10T19:32:19.331Z,97731.50
2019-06-10T19:36:25.036Z,97732.00
2019-06-10T19:40:32.560Z,97738.19
2019-06-10T19:44:39.214Z,97739.14
2019-06-10T19:48:57.301Z,97725.52
2019-06-10T19:52:52.391Z,97724.56
2019-06-10T19:56:58.105Z,97746.98
2019-06-10T20:01:03.838Z,97767.67
2019-06-10T20:05:12.323Z,97766.64
2019-06-10T20:09:17.596Z,97746.31
2019-06-10T20:13:23.351Z,97728.99
2019-06-10T20:17:29.196Z,97731.17
2019-06-10T20:21:36.013Z,97724.28
2019-06-10T20:25:44.283Z,97736.53
2019-06-10T20:30:03.687Z,97735.11
2019-06-10T20:33:58.680Z,97719.50
2019-06-10T20:38:05.066Z,97714.70
2019-06-10T20:42:12.902Z,97734.10
2019-06-10T20:46:18.706Z,97747.78
2019-06-10T20:50:24.555Z,97751.40
2019-06-10T20:54:32.305Z,97758.43
2019-06-10T20:58:38.741Z,97786.98
2019-06-10T21:02:45.905Z,97805.97
2019-06-10T21:06:53.737Z,97801.80
2019-06-10T21:11:02.678Z,97786.14
2019-06-10T21:15:09.701Z,97752.29
2019-06-10T21:19:15.417Z,97722.35
2019-06-10T21:23:22.501Z,97724.16
2019-06-10T21:27:28.280Z,97725.04
2019-06-10T21:31:34.167Z,97723.31
2019-06-10T21:35:42.473Z,97718.78
2019-06-10T21:39:49.595Z,97717.30
2019-06-10T21:43:59.495Z,97714.92
2019-06-10T21:48:04.183Z,97696.08
2019-06-10T21:52:10.129Z,97683.55
2019-06-10T21:56:15.883Z,97667.77
2019-06-10T22:00:24.462Z,97667.98
2019-06-10T22:04:32.628Z,97658.25
2019-06-10T22:08:38.601Z,97655.50
2019-06-10T22:12:44.317Z,97648.06
2019-06-10T22:16:50.895Z,97631.83
2019-06-10T22:20:57.759Z,97628.80
2019-06-10T22:25:03.844Z,97620.41
2019-06-10T22:29:09.528Z,97618.91
2019-06-10T22:33:15.387Z,97628.72
2019-06-10T22:37:21.099Z,97630.48
2019-06-10T22:41:26.818Z,97637.98
2019-06-10T22:45:32.656Z,97622.73
2019-06-10T22:49:38.382Z,97629.84
2019-06-10T22:53:44.094Z,97645.59
2019-06-10T22:57:51.785Z,97687.76
2019-06-10T23:01:59.978Z,97731.94
2019-06-10T23:06:05.831Z,97753.44
2019-06-10T23:10:12.359Z,97727.20
2019-06-10T23:14:18.245Z,97703.64
2019-06-10T23:18:23.967Z,97702.05
2019-06-10T23:22:29.771Z,97707.89
2019-06-10T23:26:35.515Z,97702.96
2019-06-10T23:30:42.713Z,97671.66
2019-06-10T23:34:48.955Z,97660.22
2019-06-10T23:38:54.903Z,97624.95
2019-06-10T23:43:01.657Z,97619.77
2019-06-10T23:47:08.167Z,97637.31
2019-06-10T23:51:13.922Z,97644.89
2019-06-10T23:55:19.634Z,97652.32
2019-06-10T23:59:25.424Z,97671.17
